createdAt,value
2018-06-17T00:02:22.270Z,98461.95
2018-06-17T00:04:52.257Z,98466.83
2018-06-17T00:07:18.862Z,98465.66
2018-06-17T00:09:45.777Z,98471.83
2018-06-17T00:12:12.552Z,98467.46
2018-06-17T00:14:39.007Z,98468.31
2018-06-17T00:17:05.473Z,98463.95
2018-06-17T00:19:32.241Z,98473.25
2018-06-17T00:21:58.693Z,98466.13
2018-06-17T00:24:25.175Z,98470.81
2018-06-17T00:26:51.957Z,98475.14
2018-06-17T00:29:18.448Z,98484.06
2018-06-17T00:31:44.937Z,98476.75
2018-06-17T00:34:11.849Z,98480.48
2018-06-17T00:36:38.351Z,98482.75
2018-06-17T00:39:04.880Z,98483.83
2018-06-17T00:41:31.864Z,98471.92
2018-06-17T00:43:58.352Z,98474.06
2018-06-17T00:46:24.817Z,98483.83
2018-06-17T00:48:51.286Z,98481.52
2018-06-17T00:51:18.125Z,98481.73
2018-06-17T00:53:44.594Z,98482.41
2018-06-17T00:56:11.884Z,98489.01
2018-06-17T00:58:38.837Z,98486.27
2018-06-17T01:01:05.296Z,98481.98
2018-06-17T01:03:31.789Z,98485.38
2018-06-17T01:05:58.969Z,98479.95
2018-06-17T01:08:25.427Z,98482.97
2018-06-17T01:10:51.928Z,98478.16
2018-06-17T01:13:19.907Z,98476.05
2018-06-17T01:15:46.352Z,98480.05
2018-06-17T01:18:13.624Z,98481.44
2018-06-17T01:20:40.824Z,98475.22
2018-06-17T01:23:07.285Z,98477.50
2018-06-17T01:25:33.737Z,98479.86
2018-06-17T01:28:00.200Z,98479.20
2018-06-17T01:30:27.884Z,98480.08
2018-06-17T01:32:54.336Z,98491.56
2018-06-17T01:35:20.777Z,98493.47
2018-06-17T01:37:47.713Z,98490.83
2018-06-17T01:40:14.180Z,98492.74
2018-06-17T01:42:40.628Z,98492.47
2018-06-17T01:45:07.421Z,98498.52
2018-06-17T01:47:33.877Z,98496.19
2018-06-17T01:50:00.316Z,98496.38
2018-06-17T01:52:27.124Z,98491.67
2018-06-17T01:54:53.569Z,98493.30
2018-06-17T01:57:21.550Z,98486.56
2018-06-17T01:59:49.313Z,98495.21
2018-06-17T02:02:15.774Z,98496.81
2018-06-17T02:04:42.249Z,98493.03
2018-06-17T02:07:10.056Z,98490.10
2018-06-17T02:09:36.496Z,98488.97
2018-06-17T02:12:02.958Z,98494.55
2018-06-17T02:14:29.848Z,98496.23
2018-06-17T02:16:56.290Z,98496.73
2018-06-17T02:19:23.442Z,98500.89
2018-06-17T02:21:53.448Z,98507.05
2018-06-17T02:24:20.297Z,98503.65
2018-06-17T02:26:46.973Z,98493.16
2018-06-17T02:29:13.421Z,98489.38
2018-06-17T02:31:40.361Z,98488.98
2018-06-17T02:34:06.825Z,98492.10
2018-06-17T02:36:33.298Z,98493.73
2018-06-17T02:39:00.241Z,98495.12
2018-06-17T02:41:26.709Z,98496.62
2018-06-17T02:43:53.156Z,98494.43
2018-06-17T02:46:19.615Z,98495.64
2018-06-17T02:48:46.472Z,98510.27
2018-06-17T02:51:12.932Z,98506.48
2018-06-17T02:53:39.385Z,98511.59
2018-06-17T02:56:06.341Z,98518.96
2018-06-17T02:58:33.482Z,98516.11
2018-06-17T03:00:59.933Z,98511.78
2018-06-17T03:03:27.589Z,98513.77
2018-06-17T03:05:54.045Z,98517.92
2018-06-17T03:08:20.497Z,98520.75
2018-06-17T03:10:48.606Z,98513.74
2018-06-17T03:13:15.346Z,98517.81
2018-06-17T03:15:41.866Z,98520.08
2018-06-17T03:18:08.326Z,98514.53
2018-06-17T03:20:35.262Z,98511.40
2018-06-17T03:23:01.714Z,98510.44
2018-06-17T03:25:28.162Z,98509.70
2018-06-17T03:27:54.633Z,98506.55
2018-06-17T03:30:21.402Z,98506.09
2018-06-17T03:32:47.850Z,98510.41
2018-06-17T03:35:14.284Z,98502.47
2018-06-17T03:37:40.746Z,98504.26
2018-06-17T03:40:07.208Z,98513.06
2018-06-17T03:42:33.649Z,98509.02
2018-06-17T03:45:00.102Z,98517.23
2018-06-17T03:47:27.045Z,98516.66
2018-06-17T03:49:53.516Z,98525.58
2018-06-17T03:52:19.960Z,98523.78
2018-06-17T03:54:46.397Z,98521.02
2018-06-17T03:57:13.280Z,98510.50
2018-06-17T03:59:39.734Z,98512.20
2018-06-17T04:02:06.169Z,98517.20
2018-06-17T04:04:32.615Z,98513.06
2018-06-17T04:06:59.434Z,98520.05
2018-06-17T04:09:25.877Z,98523.47
2018-06-17T04:11:52.309Z,98521.75
2018-06-17T04:14:18.769Z,98531.77
2018-06-17T04:16:46.253Z,98526.78
2018-06-17T04:19:12.698Z,98531.11
2018-06-17T04:21:39.144Z,98538.86
2018-06-17T04:24:05.877Z,98536.09
2018-06-17T04:26:32.374Z,98533.05
2018-06-17T04:28:58.820Z,98531.98
2018-06-17T04:31:27.418Z,98530.37
2018-06-17T04:33:56.222Z,98527.27
2018-06-17T04:36:22.809Z,98524.78
2018-06-17T04:38:50.598Z,98526.95
2018-06-17T04:41:17.046Z,98519.48
2018-06-17T04:43:43.917Z,98522.20
2018-06-17T04:46:10.372Z,98517.34
2018-06-17T04:48:36.820Z,98522.92
2018-06-17T04:51:03.273Z,98517.05
2018-06-17T04:53:30.059Z,98530.02
2018-06-17T04:55:56.501Z,98527.48
2018-06-17T04:58:22.954Z,98524.81
2018-06-17T05:00:49.401Z,98519.09
2018-06-17T05:03:16.262Z,98526.80
2018-06-17T05:05:42.772Z,98523.85
2018-06-17T05:08:09.222Z,98529.40
2018-06-17T05:10:36.077Z,98529.92
2018-06-17T05:13:02.521Z,98529.06
2018-06-17T05:15:28.961Z,98519.57
2018-06-17T05:17:55.438Z,98527.33
2018-06-17T05:20:22.210Z,98525.73
2018-06-17T05:22:48.644Z,98523.55
2018-06-17T05:25:15.096Z,98523.47
2018-06-17T05:27:42.415Z,98526.86
2018-06-17T05:30:09.433Z,98527.38
2018-06-17T05:32:35.880Z,98530.21
2018-06-17T05:35:02.329Z,98530.86
2018-06-17T05:37:28.776Z,98521.23
2018-06-17T05:39:55.240Z,98525.77
2018-06-17T05:42:22.216Z,98519.34
2018-06-17T05:44:49.413Z,98522.82
2018-06-17T05:47:15.861Z,98518.70
2018-06-17T05:49:42.294Z,98512.97
2018-06-17T05:52:09.397Z,98515.55
2018-06-17T05:54:36.168Z,98521.03
2018-06-17T05:57:02.686Z,98527.79
2018-06-17T05:59:29.194Z,98530.83
2018-06-17T06:01:56.074Z,98533.37
2018-06-17T06:04:22.525Z,98539.20
2018-06-17T06:06:49.020Z,98540.52
2018-06-17T06:09:15.489Z,98536.66
2018-06-17T06:11:42.420Z,98539.74
2018-06-17T06:14:08.927Z,98542.83
2018-06-17T06:16:35.405Z,98541.22
2018-06-17T06:19:01.861Z,98544.02
2018-06-17T06:21:28.657Z,98536.32
2018-06-17T06:23:55.097Z,98546.23
2018-06-17T06:26:21.554Z,98533.38
2018-06-17T06:28:48.013Z,98545.77
2018-06-17T06:31:14.796Z,98529.73
2018-06-17T06:33:41.244Z,98548.11
2018-06-17T06:36:07.707Z,98551.66
2018-06-17T06:38:34.529Z,98553.02
2018-06-17T06:41:01.497Z,98551.08
2018-06-17T06:43:27.956Z,98552.53
2018-06-17T06:45:54.417Z,98557.61
2018-06-17T06:48:21.261Z,98548.77
2018-06-17T06:50:47.722Z,98560.27
2018-06-17T06:53:14.201Z,98551.61
2018-06-17T06:55:40.657Z,98560.13
2018-06-17T06:58:07.607Z,98564.84
2018-06-17T07:00:35.942Z,98554.83
2018-06-17T07:03:02.403Z,98547.23
2018-06-17T07:05:29.964Z,98548.00
2018-06-17T07:07:57.222Z,98560.18
2018-06-17T07:10:23.694Z,98575.21
2018-06-17T07:12:50.137Z,98561.27
2018-06-17T07:15:16.913Z,98558.13
2018-06-17T07:17:43.382Z,98560.41
2018-06-17T07:20:09.825Z,98562.00
2018-06-17T07:22:37.767Z,98561.13
2018-06-17T07:25:04.692Z,98564.50
2018-06-17T07:27:31.157Z,98573.12
2018-06-17T07:29:57.627Z,98566.45
2018-06-17T07:32:24.409Z,98574.78
2018-06-17T07:34:50.854Z,98583.77
2018-06-17T07:37:17.336Z,98578.86
2018-06-17T07:39:44.971Z,98589.88
2018-06-17T07:42:12.034Z,98576.34
2018-06-17T07:44:38.664Z,98585.52
2018-06-17T07:47:07.645Z,98581.10
2018-06-17T07:49:35.734Z,98577.97
2018-06-17T07:52:03.650Z,98595.45
2018-06-17T07:54:30.549Z,98588.98
2018-06-17T07:57:01.381Z,98578.86
2018-06-17T07:59:28.175Z,98587.30
2018-06-17T08:01:55.024Z,98585.53
2018-06-17T08:04:21.578Z,98593.08
2018-06-17T08:09:20.249Z,98587.12
2018-06-17T08:11:46.864Z,98592.09
2018-06-17T08:14:13.330Z,98583.62
2018-06-17T08:16:39.821Z,98582.28
2018-06-17T08:21:37.872Z,98584.58
2018-06-17T08:24:04.417Z,98587.11
2018-06-17T08:26:30.948Z,98595.11
2018-06-17T08:28:57.689Z,98591.48
2018-06-17T08:31:24.523Z,98593.77
2018-06-17T08:33:53.765Z,98581.73
2018-06-17T08:36:20.675Z,98598.90
2018-06-17T08:38:47.198Z,98596.20
2018-06-17T08:41:13.684Z,98590.50
2018-06-17T08:43:40.440Z,98585.14
2018-06-17T08:46:06.905Z,98590.72
2018-06-17T08:48:33.399Z,98600.80
2018-06-17T08:51:00.193Z,98592.91
2018-06-17T08:53:26.672Z,98582.30
2018-06-17T08:55:53.544Z,98575.47
2018-06-17T08:58:20.319Z,98584.27
2018-06-17T09:00:46.773Z,98586.83
2018-06-17T09:03:13.228Z,98594.95
2018-06-17T09:05:39.981Z,98590.36
2018-06-17T09:08:07.354Z,98594.36
2018-06-17T09:10:33.809Z,98605.78
2018-06-17T09:13:00.590Z,98600.16
2018-06-17T09:15:28.524Z,98591.56
2018-06-17T09:17:58.903Z,98579.06
2018-06-17T09:20:26.457Z,98583.37
2018-06-17T09:22:52.913Z,98611.23
2018-06-17T09:25:19.493Z,98597.78
2018-06-17T09:27:46.211Z,98593.58
2018-06-17T09:30:12.715Z,98587.36
2018-06-17T09:32:40.444Z,98598.19
2018-06-17T09:35:07.325Z,98590.22
2018-06-17T09:37:33.785Z,98585.36
2018-06-17T09:40:00.483Z,98589.22
2018-06-17T09:42:27.233Z,98578.79
2018-06-17T09:44:53.693Z,98589.88
2018-06-17T09:47:20.153Z,98572.56
2018-06-17T09:49:46.922Z,98575.72
2018-06-17T09:52:13.395Z,98578.83
2018-06-17T09:54:39.852Z,98591.14
2018-06-17T09:57:06.588Z,98588.33
2018-06-17T09:59:33.044Z,98590.37
2018-06-17T10:01:59.527Z,98588.52
2018-06-17T10:04:26.284Z,98588.27
2018-06-17T10:06:53.382Z,98592.65
2018-06-17T10:09:25.163Z,98598.17
2018-06-17T10:11:59.936Z,98593.73
2018-06-17T10:14:27.584Z,98599.17
2018-06-17T10:16:54.538Z,98598.65
2018-06-17T10:21:52.520Z,98600.39
2018-06-17T10:24:20.565Z,98607.81
2018-06-17T10:26:47.317Z,98602.73
2018-06-17T10:29:13.868Z,98617.11
2018-06-17T10:31:40.439Z,98598.16
2018-06-17T10:34:07.725Z,98598.73
2018-06-17T10:36:34.996Z,98601.66
2018-06-17T10:39:01.489Z,98605.10
2018-06-17T10:41:30.126Z,98605.25
2018-06-17T10:43:56.607Z,98609.02
2018-06-17T10:46:23.370Z,98611.77
2018-06-17T10:48:50.226Z,98614.73
2018-06-17T10:51:17.444Z,98603.75
2018-06-17T10:53:44.337Z,98619.63
2018-06-17T10:56:10.814Z,98621.02
2018-06-17T10:58:37.578Z,98614.98
2018-06-17T11:01:04.332Z,98616.33
2018-06-17T11:03:30.788Z,98620.90
2018-06-17T11:05:57.397Z,98618.06
2018-06-17T11:08:26.068Z,98629.00
2018-06-17T11:10:52.593Z,98613.09
2018-06-17T11:13:20.756Z,98625.89
2018-06-17T11:15:48.989Z,98614.48
2018-06-17T11:18:15.435Z,98617.00
2018-06-17T11:20:43.085Z,98613.72
2018-06-17T12:05:12.427Z,98625.84
2018-06-17T12:07:39.588Z,98641.59
2018-06-17T12:10:06.699Z,98629.72
2018-06-17T12:12:33.392Z,98649.23
2018-06-17T12:14:59.995Z,98630.48
2018-06-17T12:17:26.809Z,98624.58
2018-06-17T12:19:53.385Z,98637.66
2018-06-17T12:22:19.842Z,98638.13
2018-06-17T12:24:46.689Z,98628.87
2018-06-17T12:27:13.261Z,98638.20
2018-06-17T12:29:39.806Z,98635.50
2018-06-17T12:32:06.673Z,98629.15
2018-06-17T12:34:33.111Z,98642.61
2018-06-17T12:36:59.956Z,98656.17
2018-06-17T12:39:29.301Z,98652.94
2018-06-17T12:41:56.428Z,98637.53
2018-06-17T12:44:23.648Z,98646.78
2018-06-17T12:46:50.874Z,98655.02
2018-06-17T12:49:17.310Z,98651.77
2018-06-17T12:51:43.806Z,98655.91
2018-06-17T12:54:11.921Z,98664.66
2018-06-17T12:56:38.413Z,98668.05
2018-06-17T12:59:04.856Z,98666.58
2018-06-17T13:01:31.794Z,98677.88
2018-06-17T13:03:58.272Z,98652.37
2018-06-17T13:06:25.384Z,98664.52
2018-06-17T13:08:54.040Z,98667.56
2018-06-17T13:11:20.476Z,98668.17
2018-06-17T13:13:48.654Z,98673.02
2018-06-17T13:16:16.433Z,98675.34
2018-06-17T13:18:43.803Z,98663.66
2018-06-17T13:21:13.416Z,98666.09
2018-06-17T13:23:41.987Z,98658.70
2018-06-17T13:26:11.475Z,98666.94
2018-06-17T13:28:38.525Z,98670.58
2018-06-17T13:31:07.028Z,98671.94
2018-06-17T13:33:34.719Z,98676.35
2018-06-17T13:36:01.214Z,98676.59
2018-06-17T13:38:28.572Z,98678.77
2018-06-17T13:40:56.897Z,98678.95
2018-06-17T13:43:23.345Z,98692.58
2018-06-17T13:45:50.966Z,98684.81
2018-06-17T13:48:17.429Z,98690.36
2018-06-17T13:50:43.888Z,98681.80
2018-06-17T13:53:11.166Z,98681.41
2018-06-17T13:55:38.174Z,98688.20
2018-06-17T13:58:05.182Z,98690.23
2018-06-17T14:03:13.847Z,98692.62
2018-06-17T14:05:42.318Z,98672.72
2018-06-17T14:08:09.197Z,98674.73
2018-06-17T14:10:37.169Z,98683.98
2018-06-17T14:13:06.590Z,98686.98
2018-06-17T14:15:34.284Z,98681.22
2018-06-17T14:18:02.438Z,98680.66
2018-06-17T14:20:32.404Z,98684.64
2018-06-17T14:23:06.618Z,98692.13
2018-06-17T14:25:33.561Z,98691.54
2018-06-17T14:28:02.236Z,98691.63
2018-06-17T14:30:34.355Z,98688.30
2018-06-17T14:33:04.831Z,98692.14
2018-06-17T14:35:34.310Z,98696.97
2018-06-17T14:38:01.546Z,98684.57
2018-06-17T14:40:29.171Z,98687.42
2018-06-17T14:42:55.846Z,98692.48
2018-06-17T14:45:24.330Z,98694.34
2018-06-17T14:47:52.824Z,98689.78
2018-06-17T14:50:19.282Z,98681.72
2018-06-17T14:52:48.263Z,98684.88
2018-06-17T14:55:15.393Z,98696.25
2018-06-17T14:57:46.169Z,98694.95
2018-06-17T15:00:18.360Z,98710.28
2018-06-17T15:02:47.789Z,98703.34
2018-06-17T15:05:15.040Z,98703.86
2018-06-17T15:07:42.546Z,98701.98
2018-06-17T15:10:09.404Z,98700.21
2018-06-17T15:12:36.072Z,98691.34
2018-06-17T15:15:03.247Z,98694.41
2018-06-17T15:17:32.219Z,98689.23
2018-06-17T15:19:59.618Z,98685.08
2018-06-17T15:22:26.266Z,98702.94
2018-06-17T15:24:53.528Z,98686.56
2018-06-17T15:27:19.986Z,98706.59
2018-06-17T15:29:46.437Z,98703.94
2018-06-17T15:32:13.224Z,98714.52
2018-06-17T15:34:39.673Z,98699.73
2018-06-17T15:37:06.112Z,98703.13
2018-06-17T15:39:32.845Z,98702.75
2018-06-17T15:42:01.004Z,98708.72
2018-06-17T15:44:27.441Z,98699.98
2018-06-17T15:46:58.845Z,98706.03
2018-06-17T15:49:26.721Z,98706.19
2018-06-17T15:51:54.680Z,98704.70
2018-06-17T15:54:22.598Z,98705.92
2018-06-17T15:56:50.668Z,98707.62
2018-06-17T15:59:20.446Z,98705.45
2018-06-17T16:01:47.172Z,98706.27
2018-06-17T16:04:13.671Z,98700.95
2018-06-17T16:06:41.631Z,98694.88
2018-06-17T16:09:10.431Z,98700.33
2018-06-17T16:11:40.540Z,98703.11
2018-06-17T16:14:06.993Z,98696.20
2018-06-17T16:16:34.766Z,98707.03
2018-06-17T16:19:02.326Z,98702.03
2018-06-17T16:21:28.967Z,98704.97
2018-06-17T16:23:56.652Z,98712.08
2018-06-17T16:26:24.312Z,98717.53
2018-06-17T16:28:51.934Z,98708.91
2018-06-17T16:31:22.526Z,98725.13
2018-06-17T16:33:49.596Z,98713.84
2018-06-17T16:36:16.040Z,98721.94
2018-06-17T16:38:42.845Z,98722.09
2018-06-17T16:41:10.581Z,98733.23
2018-06-17T16:43:37.019Z,98727.33
2018-06-17T16:46:03.752Z,98718.47
2018-06-17T16:48:31.473Z,98733.16
2018-06-17T16:50:58.337Z,98720.43
2018-06-17T16:53:25.105Z,98743.06
2018-06-17T16:55:54.772Z,98719.10
2018-06-17T16:58:22.732Z,98733.69
2018-06-17T17:00:49.574Z,98719.72
2018-06-17T17:03:16.972Z,98726.89
2018-06-17T17:05:43.439Z,98732.84
2018-06-17T17:08:10.210Z,98728.86
2018-06-17T17:10:37.221Z,98719.47
2018-06-17T17:13:03.688Z,98748.39
2018-06-17T17:15:30.448Z,98731.16
2018-06-17T17:17:56.923Z,98733.77
2018-06-17T17:20:23.435Z,98731.69
2018-06-17T17:22:51.062Z,98734.91
2018-06-17T17:25:17.790Z,98738.57
2018-06-17T17:27:44.241Z,98738.45
2018-06-17T17:30:12.489Z,98736.86
2018-06-17T17:32:39.324Z,98742.34
2018-06-17T17:35:05.753Z,98743.67
2018-06-17T17:37:32.518Z,98744.05
2018-06-17T17:39:59.648Z,98748.05
2018-06-17T17:42:28.454Z,98756.75
2018-06-17T17:44:56.252Z,98754.89
2018-06-17T17:47:26.241Z,98770.11
2018-06-17T17:49:53.441Z,98772.59
2018-06-17T17:52:20.328Z,98774.04
2018-06-17T17:54:46.839Z,98775.20
2018-06-17T17:57:13.415Z,98787.16
2018-06-17T17:59:41.965Z,98781.73
2018-06-17T18:02:08.718Z,98780.43
2018-06-17T18:04:36.740Z,98768.36
2018-06-17T18:07:03.495Z,98783.82
2018-06-17T18:09:29.942Z,98789.94
2018-06-17T18:11:56.407Z,98781.94
2018-06-17T18:14:23.957Z,98785.48
2018-06-17T18:16:51.412Z,98791.27
2018-06-17T18:19:17.861Z,98785.28
2018-06-17T18:21:44.590Z,98788.03
2018-06-17T18:24:14.811Z,98786.67
2018-06-17T18:26:41.241Z,98782.70
2018-06-17T18:29:07.973Z,98787.02
2018-06-17T18:31:34.613Z,98791.36
2018-06-17T18:34:01.064Z,98784.48
2018-06-17T18:36:27.837Z,98778.65
2018-06-17T18:43:57.852Z,98781.28
2018-06-17T18:46:24.346Z,98770.44
2018-06-17T18:48:52.186Z,98767.06
2018-06-17T18:51:19.314Z,98758.87
2018-06-17T18:53:45.800Z,98759.66
2018-06-17T18:56:12.712Z,98749.02
2018-06-17T18:58:39.968Z,98752.81
2018-06-17T19:01:08.894Z,98752.03
2018-06-17T19:03:36.566Z,98763.28
2018-06-17T19:06:03.403Z,98767.50
2018-06-17T19:11:06.552Z,98769.69
2018-06-17T19:13:34.660Z,98769.06
2018-06-17T19:16:01.111Z,98773.75
2018-06-17T19:18:27.931Z,98775.04
2018-06-17T19:20:54.415Z,98785.24
2018-06-17T19:23:20.890Z,98780.50
2018-06-17T19:25:47.618Z,98781.59
2018-06-17T19:28:14.813Z,98785.27
2018-06-17T19:30:42.213Z,98794.66
2018-06-17T19:33:09.708Z,98801.33
2018-06-17T19:35:37.496Z,98798.78
2018-06-17T19:38:03.930Z,98798.78
2018-06-17T19:40:32.312Z,98800.59
2018-06-17T19:43:00.739Z,98807.91
2018-06-17T19:45:28.284Z,98805.72
2018-06-17T19:47:55.280Z,98810.17
2018-06-17T19:50:22.136Z,98818.00
2018-06-17T19:52:50.266Z,98818.35
2018-06-17T19:55:17.527Z,98826.05
2018-06-17T19:57:44.620Z,98822.23
2018-06-17T20:00:11.301Z,98824.16
2018-06-17T20:02:38.609Z,98825.84
2018-06-17T20:05:06.527Z,98826.81
2018-06-17T20:07:35.704Z,98833.27
2018-06-17T20:10:02.897Z,98832.41
2018-06-17T20:12:29.498Z,98826.81
2018-06-17T20:14:57.609Z,98834.02
2018-06-17T20:17:25.251Z,98835.45
2018-06-17T20:22:24.143Z,98844.37
2018-06-17T20:27:22.672Z,98847.77
2018-06-17T20:32:24.710Z,98838.39
2018-06-17T20:34:51.163Z,98848.08
2018-06-17T20:37:17.620Z,98845.62
2018-06-17T20:39:45.717Z,98846.48
2018-06-17T20:42:18.597Z,98851.68
2018-06-17T20:44:46.767Z,98854.81
2018-06-17T20:47:15.661Z,98844.30
2018-06-17T20:49:44.278Z,98843.55
2018-06-17T20:52:14.235Z,98852.27
2018-06-17T20:54:44.402Z,98856.14
2018-06-17T21:02:19.892Z,98869.66
2018-06-17T21:07:19.965Z,98873.45
2018-06-17T21:09:48.800Z,98875.63
2018-06-17T21:12:19.115Z,98877.31
2018-06-17T21:14:47.324Z,98871.26
2018-06-17T21:17:17.399Z,98872.78
2018-06-17T21:19:46.100Z,98870.59
2018-06-17T21:22:16.542Z,98871.06
2018-06-17T21:24:45.108Z,98872.78
2018-06-17T21:27:12.089Z,98876.19
2018-06-17T21:29:39.184Z,98868.80
2018-06-17T21:32:06.503Z,98873.25
2018-06-17T21:34:33.322Z,98876.02
2018-06-17T21:37:00.244Z,98874.11
2018-06-17T21:39:26.681Z,98880.56
2018-06-17T21:41:53.688Z,98881.34
2018-06-17T21:44:21.226Z,98884.94
2018-06-17T21:46:48.449Z,98888.17
2018-06-17T21:49:16.217Z,98885.59
2018-06-17T21:51:42.676Z,98890.05
2018-06-17T21:54:09.122Z,98891.02
2018-06-17T21:56:38.977Z,98893.30
2018-06-17T21:59:05.445Z,98888.56
2018-06-17T22:01:33.135Z,98890.83
2018-06-17T22:03:59.580Z,98892.07
2018-06-17T22:06:26.742Z,98889.30
2018-06-17T22:08:55.886Z,98882.11
2018-06-17T22:11:22.396Z,98878.41
2018-06-17T22:13:49.523Z,98880.59
2018-06-17T22:16:16.022Z,98876.22
2018-06-17T22:18:42.647Z,98873.20
2018-06-17T22:21:09.453Z,98874.70
2018-06-17T22:23:36.122Z,98870.71
2018-06-17T22:26:02.617Z,98868.45
2018-06-17T22:28:29.380Z,98870.71
2018-06-17T22:30:55.840Z,98869.58
2018-06-17T22:33:22.285Z,98869.38
2018-06-17T22:35:49.025Z,98870.91
2018-06-17T22:38:15.465Z,98874.53
2018-06-17T22:40:41.920Z,98876.33
2018-06-17T22:43:08.658Z,98871.09
2018-06-17T22:45:35.427Z,98872.81
2018-06-17T22:48:01.897Z,98881.75
2018-06-17T22:50:28.628Z,98873.97
2018-06-17T22:52:55.073Z,98875.66
2018-06-17T22:55:22.114Z,98873.30
2018-06-17T22:57:48.584Z,98875.49
2018-06-17T23:00:15.322Z,98878.80
2018-06-17T23:02:42.438Z,98884.30
2018-06-17T23:05:09.919Z,98879.47
2018-06-17T23:07:36.357Z,98883.34
2018-06-17T23:10:03.099Z,98874.16
2018-06-17T23:12:29.537Z,98868.19
2018-06-17T23:14:56.754Z,98871.03
2018-06-17T23:17:23.474Z,98865.80
2018-06-17T23:19:50.688Z,98863.34
2018-06-17T23:22:17.136Z,98863.80
2018-06-17T23:24:46.738Z,98867.98
2018-06-17T23:27:13.193Z,98866.96
2018-06-17T23:29:42.565Z,98875.19
2018-06-17T23:32:09.029Z,98881.45
2018-06-17T23:34:36.452Z,98878.05
2018-06-17T23:37:03.979Z,98876.44
2018-06-17T23:39:30.442Z,98874.72
2018-06-17T23:41:58.203Z,98872.33
2018-06-17T23:44:25.216Z,98877.75
2018-06-17T23:46:51.693Z,98890.84
2018-06-17T23:49:18.355Z,98892.82
2018-06-17T23:51:45.073Z,98891.23
2018-06-17T23:54:11.506Z,98882.41
2018-06-17T23:56:39.111Z,98884.59
2018-06-17T23:59:05.866Z,98881.08
